Time;durP1;ratioP1;P1;durP2;ratioP2;P2;SDS_P1;SDS_P2;PMS_P1;PMS_P2;Temp;Humidity;BMP_temperature;BMP_pressure;BME280_temperature;BME280_humidity;BME280_pressure;Samples;Min_cycle;Max_cycle;Signal;HPM_P1;HPM_P2
2021/01/23 00:02:25;;;;;;;0.60;0.60;;;;;;;;;;5031364;28;20035;-86
2021/01/23 00:05:11;;;;;;;0.85;0.82;;;;;;;;;;5038232;28;20036;-86
2021/01/23 00:08:01;;;;;;;0.60;0.60;;;;;;;;;;5037507;28;20525;-86
2021/01/23 00:10:47;;;;;;;0.50;0.50;;;;;;;;;;5045908;28;20041;-86
2021/01/23 00:13:32;;;;;;;0.82;0.60;;;;;;;;;;5034735;28;20036;-86
2021/01/23 00:16:17;;;;;;;0.50;0.50;;;;;;;;;;5034470;28;20383;-86
2021/01/23 00:19:02;;;;;;;0.73;0.70;;;;;;;;;;5036383;28;20116;-86
2021/01/23 00:21:48;;;;;;;2.05;0.98;;;;;;;;;;5033170;28;20025;-86
2021/01/23 00:24:33;;;;;;;0.95;0.65;;;;;;;;;;5033081;28;20078;-86
2021/01/23 00:27:18;;;;;;;0.85;0.70;;;;;;;;;;5028116;28;20367;-85
2021/01/23 00:30:03;;;;;;;2.00;0.80;;;;;;;;;;5034788;28;20622;-88
2021/01/23 00:32:49;;;;;;;1.05;0.88;;;;;;;;;;5035760;28;20056;-86
2021/01/23 00:35:34;;;;;;;1.15;1.00;;;;;;;;;;5035918;28;20031;-86
2021/01/23 00:38:19;;;;;;;1.10;0.88;;;;;;;;;;5026495;28;20104;-85
2021/01/23 00:41:04;;;;;;;1.85;1.40;;;;;;;;;;5034235;28;20138;-86
2021/01/23 00:43:50;;;;;;;1.33;1.13;;;;;;;;;;5031615;28;20116;-85
2021/01/23 00:46:35;;;;;;;1.23;1.13;;;;;;;;;;5034028;28;20033;-86
2021/01/23 00:49:20;;;;;;;1.13;1.00;;;;;;;;;;5032843;28;20024;-86
2021/01/23 00:52:05;;;;;;;1.98;1.50;;;;;;;;;;5034559;28;20028;-85
2021/01/23 00:54:50;;;;;;;1.75;1.20;;;;;;;;;;5033347;28;20066;-85
2021/01/23 00:57:36;;;;;;;1.40;1.27;;;;;;;;;;5033874;28;20029;-86
2021/01/23 01:00:21;;;;;;;1.45;1.33;;;;;;;;;;5033343;28;20045;-86
2021/01/23 01:03:06;;;;;;;2.05;1.65;;;;;;;;;;5033904;28;20513;-86
2021/01/23 01:05:51;;;;;;;2.42;1.77;;;;;;;;;;5034464;28;20509;-86
2021/01/23 01:08:37;;;;;;;2.53;1.83;;;;;;;;;;5031618;28;20045;-86
2021/01/23 01:11:22;;;;;;;2.90;1.77;;;;;;;;;;5034349;28;20052;-86
2021/01/23 01:14:08;;;;;;;3.42;1.83;;;;;;;;;;5028218;28;20098;-86
2021/01/23 01:16:53;;;;;;;2.67;2.33;;;;;;;;;;5035257;28;20052;-85
2021/01/23 01:19:38;;;;;;;2.65;2.03;;;;;;;;;;5031958;28;20033;-86
2021/01/23 01:22:23;;;;;;;2.60;2.13;;;;;;;;;;5030980;28;20039;-86
2021/01/23 01:25:08;;;;;;;2.58;2.38;;;;;;;;;;5031260;28;20051;-86
2021/01/23 01:27:54;;;;;;;2.72;2.13;;;;;;;;;;5035393;28;20029;-86
2021/01/23 01:30:39;;;;;;;3.00;2.25;;;;;;;;;;5025037;28;20097;-86
2021/01/23 01:33:24;;;;;;;2.65;2.08;;;;;;;;;;5036276;28;20035;-86
2021/01/23 01:41:20;;;;;;;2.42;2.13;;;;;;;;;;5449274;22;20398;-84
2021/01/23 01:44:07;;;;;;;2.97;2.00;;;;;;;;;;5064847;28;20030;-84
2021/01/23 01:46:52;;;;;;;1.92;1.77;;;;;;;;;;5071923;28;20107;-83
2021/01/23 01:49:38;;;;;;;2.05;1.70;;;;;;;;;;5073786;28;20024;-84
2021/01/23 01:52:23;;;;;;;2.53;1.65;;;;;;;;;;5071886;28;20024;-84
2021/01/23 01:55:09;;;;;;;1.40;1.30;;;;;;;;;;5074274;28;20520;-83
2021/01/23 01:57:55;;;;;;;1.38;1.27;;;;;;;;;;5077391;28;20085;-84
2021/01/23 02:00:40;;;;;;;1.55;1.35;;;;;;;;;;5069965;28;20026;-83
2021/01/23 02:03:25;;;;;;;2.10;1.38;;;;;;;;;;5074586;28;20039;-81
2021/01/23 02:06:35;;;;;;;1.83;1.55;;;;;;;;;;5070670;28;20027;-83
2021/01/23 02:09:29;;;;;;;1.40;1.30;;;;;;;;;;5075259;28;20043;-84
2021/01/23 02:12:25;;;;;;;1.48;1.20;;;;;;;;;;5072463;28;20473;-85
2021/01/23 02:15:17;;;;;;;2.85;1.10;;;;;;;;;;5068581;28;20028;-85
2021/01/23 02:18:05;;;;;;;1.23;1.13;;;;;;;;;;5057080;28;20045;-84
2021/01/23 02:21:10;;;;;;;1.30;1.20;;;;;;;;;;5069028;28;20097;-83
2021/01/23 02:23:56;;;;;;;1.60;1.20;;;;;;;;;;5077612;28;20028;-83
2021/01/23 02:26:49;;;;;;;3.20;1.30;;;;;;;;;;5073577;28;20047;-83
2021/01/23 02:29:34;;;;;;;2.65;1.75;;;;;;;;;;5071141;28;20027;-84
2021/01/23 02:32:20;;;;;;;4.38;1.60;;;;;;;;;;5070855;28;20455;-84
2021/01/23 02:35:12;;;;;;;1.35;1.20;;;;;;;;;;5065798;28;20023;-83
2021/01/23 02:37:57;;;;;;;4.15;1.83;;;;;;;;;;5066443;28;20020;-83
2021/01/23 02:40:43;;;;;;;1.10;1.00;;;;;;;;;;5055252;28;20540;-83
2021/01/23 02:43:28;;;;;;;2.25;1.95;;;;;;;;;;5051139;28;20047;-84
2021/01/23 02:46:17;;;;;;;1.35;1.25;;;;;;;;;;5050208;28;20025;-84
2021/01/23 02:49:02;;;;;;;1.27;1.08;;;;;;;;;;5048086;28;20513;-83
2021/01/23 02:51:51;;;;;;;1.38;1.25;;;;;;;;;;5051940;28;20032;-83
2021/01/23 02:54:44;;;;;;;1.45;1.30;;;;;;;;;;5037540;28;20028;-82
2021/01/23 02:57:29;;;;;;;1.73;1.50;;;;;;;;;;5049098;28;20020;-86
2021/01/23 03:00:16;;;;;;;1.45;1.10;;;;;;;;;;5052395;28;20099;-82
2021/01/23 03:03:02;;;;;;;1.90;1.20;;;;;;;;;;5047382;28;20024;-82
2021/01/23 03:05:48;;;;;;;1.20;1.10;;;;;;;;;;5047941;28;20460;-82
2021/01/23 03:08:33;;;;;;;1.58;1.05;;;;;;;;;;5048193;28;20024;-82
2021/01/23 03:11:18;;;;;;;1.30;1.10;;;;;;;;;;5053698;28;20355;-87
2021/01/23 03:14:03;;;;;;;0.70;0.70;;;;;;;;;;5049551;28;20047;-84
2021/01/23 03:16:52;;;;;;;1.95;1.23;;;;;;;;;;5051418;28;20064;-82
2021/01/23 03:19:38;;;;;;;4.40;1.00;;;;;;;;;;5053240;28;20107;-84
2021/01/23 03:22:23;;;;;;;1.85;1.30;;;;;;;;;;5050529;28;20037;-84
2021/01/23 03:25:08;;;;;;;1.30;1.20;;;;;;;;;;5049796;28;20021;-84
2021/01/23 03:27:54;;;;;;;1.45;1.20;;;;;;;;;;5057042;28;20028;-83
2021/01/23 03:30:39;;;;;;;2.38;1.30;;;;;;;;;;5049305;28;20155;-83
2021/01/23 03:33:24;;;;;;;1.40;1.20;;;;;;;;;;5053193;28;20377;-83
2021/01/23 03:36:10;;;;;;;3.40;2.00;;;;;;;;;;5052946;28;20513;-83
2021/01/23 03:38:55;;;;;;;3.22;1.63;;;;;;;;;;5055153;28;20099;-83
2021/01/23 03:41:40;;;;;;;1.83;1.67;;;;;;;;;;5054313;28;20424;-85
2021/01/23 03:44:26;;;;;;;2.35;1.40;;;;;;;;;;5056724;28;20044;-83
2021/01/23 03:47:11;;;;;;;1.80;1.33;;;;;;;;;;5065101;28;20493;-83
2021/01/23 03:49:56;;;;;;;1.42;1.23;;;;;;;;;;5052927;28;20062;-83
2021/01/23 03:52:41;;;;;;;2.05;1.40;;;;;;;;;;5055292;28;20367;-83
2021/01/23 03:55:26;;;;;;;1.30;1.17;;;;;;;;;;5052489;28;20545;-82
2021/01/23 03:58:11;;;;;;;1.90;1.17;;;;;;;;;;5053911;28;20028;-83
2021/01/23 04:00:57;;;;;;;1.50;1.30;;;;;;;;;;5049856;28;20025;-83
2021/01/23 04:03:42;;;;;;;1.10;1.10;;;;;;;;;;5054906;28;20465;-85
2021/01/23 04:06:27;;;;;;;2.75;1.60;;;;;;;;;;5053158;28;20020;-83
2021/01/23 04:09:12;;;;;;;2.08;1.20;;;;;;;;;;5057890;28;20082;-84
2021/01/23 04:11:57;;;;;;;1.77;1.55;;;;;;;;;;5052414;28;20074;-84
2021/01/23 04:14:43;;;;;;;2.15;1.92;;;;;;;;;;5058309;28;20036;-83
2021/01/23 04:17:28;;;;;;;1.73;1.20;;;;;;;;;;5053095;28;20031;-85
2021/01/23 04:20:13;;;;;;;1.52;1.10;;;;;;;;;;5056275;28;20017;-84
2021/01/23 04:22:58;;;;;;;2.85;1.35;;;;;;;;;;5053035;28;20082;-83
2021/01/23 04:25:44;;;;;;;3.40;1.30;;;;;;;;;;5057988;28;20362;-84
2021/01/23 04:28:29;;;;;;;2.10;1.50;;;;;;;;;;5063063;28;20040;-84
2021/01/23 04:31:14;;;;;;;2.67;1.45;;;;;;;;;;5060614;28;20024;-84
2021/01/23 04:33:59;;;;;;;1.67;1.48;;;;;;;;;;5053876;28;20116;-84
2021/01/23 04:36:44;;;;;;;1.70;1.60;;;;;;;;;;5052705;28;20393;-83
2021/01/23 04:39:30;;;;;;;3.60;1.80;;;;;;;;;;5058535;28;20028;-84
2021/01/23 04:42:15;;;;;;;3.28;1.73;;;;;;;;;;5054914;28;20044;-85
2021/01/23 04:45:01;;;;;;;5.20;2.30;;;;;;;;;;5056822;28;20017;-85
2021/01/23 04:47:46;;;;;;;2.38;1.58;;;;;;;;;;5056472;28;20207;-85
2021/01/23 04:50:32;;;;;;;2.83;2.03;;;;;;;;;;5054120;28;20471;-84
2021/01/23 04:53:17;;;;;;;2.45;2.17;;;;;;;;;;5051295;28;20016;-85
2021/01/23 04:56:03;;;;;;;2.25;2.03;;;;;;;;;;5055017;28;20055;-86
2021/01/23 04:58:48;;;;;;;3.15;2.28;;;;;;;;;;5049788;28;20024;-85
2021/01/23 05:01:33;;;;;;;4.25;2.15;;;;;;;;;;5055016;28;20043;-85
2021/01/23 05:04:19;;;;;;;3.90;2.00;;;;;;;;;;5052068;28;20462;-84
2021/01/23 05:07:04;;;;;;;3.85;2.05;;;;;;;;;;5056161;28;20077;-84
2021/01/23 05:09:49;;;;;;;3.03;2.03;;;;;;;;;;5050939;28;20040;-85
2021/01/23 05:12:39;;;;;;;2.42;1.95;;;;;;;;;;5054786;28;20421;-84
2021/01/23 05:15:28;;;;;;;2.50;1.98;;;;;;;;;;5066971;28;20497;-85
2021/01/23 05:18:14;;;;;;;3.63;1.60;;;;;;;;;;5052571;28;20381;-85
2021/01/23 05:21:08;;;;;;;3.72;2.22;;;;;;;;;;5054212;28;20561;-84
2021/01/23 05:24:04;;;;;;;3.33;2.00;;;;;;;;;;5048624;28;20021;-84
2021/01/23 05:26:54;;;;;;;5.78;2.45;;;;;;;;;;5050825;28;20074;-83
2021/01/23 05:29:56;;;;;;;3.95;2.63;;;;;;;;;;5049494;28;20470;-85
2021/01/23 05:32:42;;;;;;;5.30;2.58;;;;;;;;;;5055083;28;20043;-84
2021/01/23 05:35:27;;;;;;;3.08;2.25;;;;;;;;;;5051779;28;20133;-84
2021/01/23 05:38:23;;;;;;;5.07;2.17;;;;;;;;;;5050868;28;20020;-84
2021/01/23 05:41:08;;;;;;;4.88;2.53;;;;;;;;;;5050683;28;20037;-84
2021/01/23 05:43:54;;;;;;;6.10;2.70;;;;;;;;;;5038061;28;20024;-85
2021/01/23 05:46:39;;;;;;;5.25;2.60;;;;;;;;;;5058014;28;20029;-85
2021/01/23 05:49:24;;;;;;;6.57;3.58;;;;;;;;;;5053784;28;20104;-85
2021/01/23 05:52:10;;;;;;;2.75;2.40;;;;;;;;;;5062062;28;20016;-85
2021/01/23 05:54:55;;;;;;;3.40;2.83;;;;;;;;;;5074847;28;20031;-84
2021/01/23 05:57:41;;;;;;;4.28;2.67;;;;;;;;;;5060647;28;20107;-84
2021/01/23 06:00:27;;;;;;;3.80;2.22;;;;;;;;;;5053398;28;20358;-85
2021/01/23 06:03:12;;;;;;;3.53;1.92;;;;;;;;;;5053544;28;20017;-86
2021/01/23 06:05:57;;;;;;;2.63;2.08;;;;;;;;;;5049287;28;20041;-85
2021/01/23 06:08:44;;;;;;;3.65;2.45;;;;;;;;;;5050878;28;20413;-85
2021/01/23 06:11:32;;;;;;;4.18;2.63;;;;;;;;;;5049555;28;20115;-85
2021/01/23 06:14:33;;;;;;;5.10;3.78;;;;;;;;;;5055110;28;20024;-85
2021/01/23 06:17:37;;;;;;;3.88;3.00;;;;;;;;;;5047935;28;20035;-85
2021/01/23 06:20:43;;;;;;;2.97;2.10;;;;;;;;;;5050950;28;20016;-86
2021/01/23 06:23:50;;;;;;;3.58;2.53;;;;;;;;;;5068596;28;20381;-87
2021/01/23 06:26:54;;;;;;;6.68;2.60;;;;;;;;;;5051824;28;20091;-87
2021/01/23 06:29:40;;;;;;;4.10;2.28;;;;;;;;;;5056245;28;20025;-87
2021/01/23 06:32:25;;;;;;;3.35;2.25;;;;;;;;;;5053822;28;20087;-87
2021/01/23 06:35:13;;;;;;;6.47;2.55;;;;;;;;;;5049413;28;20442;-86
2021/01/23 06:38:11;;;;;;;4.15;2.25;;;;;;;;;;5057230;28;20030;-86
2021/01/23 06:41:16;;;;;;;6.72;2.65;;;;;;;;;;5046221;28;20469;-86
2021/01/23 06:44:16;;;;;;;2.50;2.13;;;;;;;;;;5053381;28;20059;-86
2021/01/23 06:47:01;;;;;;;2.72;2.25;;;;;;;;;;5052267;28;20076;-85
2021/01/23 06:49:46;;;;;;;2.03;1.65;;;;;;;;;;5059850;28;20056;-86
2021/01/23 06:52:31;;;;;;;3.85;2.30;;;;;;;;;;5057079;28;20154;-86
2021/01/23 06:55:36;;;;;;;2.33;1.73;;;;;;;;;;5059989;28;20328;-85
2021/01/23 06:58:26;;;;;;;3.55;2.20;;;;;;;;;;5053840;28;20421;-86
2021/01/23 07:01:15;;;;;;;3.03;2.40;;;;;;;;;;5052042;28;20012;-82
2021/01/23 07:04:05;;;;;;;2.97;2.22;;;;;;;;;;5053360;28;20028;-83
2021/01/23 07:06:51;;;;;;;3.78;2.45;;;;;;;;;;5054283;28;20023;-83
2021/01/23 07:09:47;;;;;;;2.97;2.45;;;;;;;;;;5054082;28;20036;-83
2021/01/23 07:12:34;;;;;;;6.70;2.50;;;;;;;;;;5055878;28;20035;-85
2021/01/23 07:15:22;;;;;;;4.45;2.45;;;;;;;;;;5056591;28;20122;-83
2021/01/23 07:18:14;;;;;;;3.38;2.22;;;;;;;;;;5039897;28;20035;-84
2021/01/23 07:21:00;;;;;;;3.42;2.38;;;;;;;;;;5045417;28;20028;-82
2021/01/23 07:23:46;;;;;;;4.72;2.70;;;;;;;;;;5052734;28;20366;-83
2021/01/23 07:26:32;;;;;;;4.88;2.55;;;;;;;;;;5056880;28;20024;-85
2021/01/23 07:29:17;;;;;;;5.03;2.30;;;;;;;;;;5051794;28;20012;-85
2021/01/23 07:32:02;;;;;;;4.82;2.63;;;;;;;;;;5056212;28;20028;-84
2021/01/23 07:34:54;;;;;;;4.15;2.70;;;;;;;;;;5055799;28;20044;-84
2021/01/23 07:37:53;;;;;;;4.38;2.88;;;;;;;;;;5043633;28;20052;-85
2021/01/23 07:40:39;;;;;;;3.30;2.50;;;;;;;;;;5053819;28;20043;-83
2021/01/23 07:43:24;;;;;;;3.88;2.25;;;;;;;;;;5055289;28;20094;-83
2021/01/23 07:46:10;;;;;;;30.02;18.58;;;;;;;;;;5053641;28;20028;-82
2021/01/23 07:48:55;;;;;;;5.45;4.03;;;;;;;;;;5053095;28;20436;-83
2021/01/23 07:51:40;;;;;;;4.97;3.33;;;;;;;;;;5055157;28;20433;-83
2021/01/23 07:54:26;;;;;;;11.38;4.20;;;;;;;;;;5056127;28;20031;-84
2021/01/23 07:57:11;;;;;;;6.85;3.25;;;;;;;;;;5057764;28;20436;-82
2021/01/23 07:59:56;;;;;;;3.25;2.47;;;;;;;;;;5052328;28;20458;-81
2021/01/23 08:02:51;;;;;;;5.80;2.90;;;;;;;;;;5055355;28;20073;-82
2021/01/23 08:05:47;;;;;;;5.00;3.00;;;;;;;;;;5056056;28;20106;-85
2021/01/23 08:08:36;;;;;;;3.08;2.30;;;;;;;;;;5054815;28;20035;-85
2021/01/23 08:11:37;;;;;;;3.95;3.20;;;;;;;;;;5052553;28;20020;-83
2021/01/23 08:14:23;;;;;;;4.00;2.85;;;;;;;;;;5055588;28;20035;-85
2021/01/23 08:17:08;;;;;;;5.10;2.78;;;;;;;;;;5054827;28;20028;-85
2021/01/23 08:19:53;;;;;;;11.07;6.85;;;;;;;;;;5053092;28;20474;-84
2021/01/23 08:22:57;;;;;;;5.78;3.72;;;;;;;;;;5055964;28;20107;-86
2021/01/23 08:25:42;;;;;;;7.15;3.85;;;;;;;;;;5061328;28;20031;-87
2021/01/23 08:28:35;;;;;;;7.07;4.13;;;;;;;;;;5067962;28;20024;-87
2021/01/23 08:31:22;;;;;;;5.10;3.30;;;;;;;;;;5065417;28;20325;-87
2021/01/23 08:34:07;;;;;;;5.10;3.72;;;;;;;;;;5069006;28;20070;-87
2021/01/23 08:36:52;;;;;;;7.00;3.75;;;;;;;;;;5059365;28;20088;-85
2021/01/23 08:39:44;;;;;;;5.50;3.55;;;;;;;;;;5057936;28;20032;-85
2021/01/23 08:42:30;;;;;;;7.57;3.53;;;;;;;;;;5055070;28;20048;-86
2021/01/23 08:45:17;;;;;;;5.80;3.90;;;;;;;;;;5068867;28;20569;-84
2021/01/23 08:48:03;;;;;;;7.78;3.70;;;;;;;;;;5052416;28;20024;-83
2021/01/23 08:50:48;;;;;;;8.07;3.80;;;;;;;;;;5055115;28;20054;-85
2021/01/23 08:53:34;;;;;;;5.32;3.22;;;;;;;;;;5049271;28;20128;-82
2021/01/23 08:56:19;;;;;;;6.10;4.03;;;;;;;;;;5052039;28;20055;-85
2021/01/23 08:59:05;;;;;;;5.70;3.80;;;;;;;;;;5052044;28;20013;-82
2021/01/23 09:01:50;;;;;;;5.72;3.80;;;;;;;;;;5049458;28;20024;-83
2021/01/23 09:04:35;;;;;;;5.07;3.42;;;;;;;;;;5053513;28;20025;-83
2021/01/23 09:07:20;;;;;;;9.88;7.03;;;;;;;;;;5049913;28;20096;-83
2021/01/23 09:10:07;;;;;;;11.20;6.70;;;;;;;;;;5068511;28;20021;-88
2021/01/23 09:12:53;;;;;;;7.90;4.18;;;;;;;;;;5056120;28;20031;-85
2021/01/23 09:15:39;;;;;;;7.60;4.13;;;;;;;;;;5057136;28;20040;-86
2021/01/23 09:18:24;;;;;;;9.48;5.20;;;;;;;;;;5050845;28;20027;-82
2021/01/23 09:21:09;;;;;;;9.45;4.38;;;;;;;;;;5055342;28;20098;-82
2021/01/23 09:23:54;;;;;;;8.68;4.57;;;;;;;;;;5051594;28;20493;-79
2021/01/23 09:26:40;;;;;;;10.38;4.93;;;;;;;;;;5059045;28;20017;-89
2021/01/23 09:29:26;;;;;;;15.55;8.43;;;;;;;;;;5072849;28;20029;-90
2021/01/23 09:32:11;;;;;;;8.88;4.32;;;;;;;;;;5064389;28;20116;-86
2021/01/23 09:34:56;;;;;;;5.88;3.28;;;;;;;;;;5054895;28;20020;-86
2021/01/23 09:37:41;;;;;;;6.38;3.38;;;;;;;;;;5049477;28;20518;-86
2021/01/23 09:40:27;;;;;;;4.65;3.00;;;;;;;;;;5051888;28;20380;-85
2021/01/23 09:43:12;;;;;;;6.30;3.80;;;;;;;;;;5053612;28;20127;-84
2021/01/23 09:45:57;;;;;;;4.22;2.58;;;;;;;;;;5052633;28;20700;-84
2021/01/23 09:48:45;;;;;;;4.30;3.17;;;;;;;;;;5049439;28;20042;-87
2021/01/23 09:51:30;;;;;;;4.78;3.15;;;;;;;;;;5052728;28;20032;-85
2021/01/23 09:54:16;;;;;;;4.72;3.13;;;;;;;;;;5048774;28;20028;-83
2021/01/23 09:57:01;;;;;;;4.70;3.08;;;;;;;;;;5053415;28;20032;-86
2021/01/23 09:59:47;;;;;;;4.68;2.60;;;;;;;;;;5046355;28;20032;-82
2021/01/23 10:02:35;;;;;;;3.92;2.20;;;;;;;;;;5052747;28;20028;-82
2021/01/23 10:05:21;;;;;;;6.18;2.80;;;;;;;;;;5044542;28;20039;-78
2021/01/23 10:08:06;;;;;;;3.67;2.63;;;;;;;;;;5044956;28;20028;-78
2021/01/23 10:10:51;;;;;;;7.78;3.28;;;;;;;;;;5049166;28;20074;-79
2021/01/23 10:13:37;;;;;;;9.73;4.90;;;;;;;;;;5051562;28;20040;-78
2021/01/23 10:16:22;;;;;;;5.57;3.22;;;;;;;;;;5054116;28;20162;-82
2021/01/23 10:19:07;;;;;;;4.03;2.95;;;;;;;;;;5064296;28;20039;-82
2021/01/23 10:21:53;;;;;;;4.82;2.67;;;;;;;;;;5049010;28;20024;-82
2021/01/23 10:24:38;;;;;;;9.65;3.10;;;;;;;;;;5051672;28;20886;-83
2021/01/23 10:27:24;;;;;;;6.82;2.88;;;;;;;;;;5052264;28;20032;-83
2021/01/23 10:30:10;;;;;;;5.22;2.47;;;;;;;;;;5051732;28;20077;-82
2021/01/23 10:32:55;;;;;;;5.22;2.47;;;;;;;;;;5052703;28;20046;-86
2021/01/23 10:35:41;;;;;;;4.55;2.58;;;;;;;;;;5051270;28;20115;-84
2021/01/23 10:38:26;;;;;;;3.67;2.38;;;;;;;;;;5055745;28;20028;-89
2021/01/23 10:41:11;;;;;;;3.95;2.58;;;;;;;;;;5066111;28;20078;-89
2021/01/23 10:43:56;;;;;;;3.60;2.13;;;;;;;;;;5054323;28;20024;-83
2021/01/23 10:46:41;;;;;;;3.08;2.47;;;;;;;;;;5056879;28;20024;-86
2021/01/23 10:49:27;;;;;;;3.15;2.10;;;;;;;;;;5060333;28;20081;-88
2021/01/23 10:52:12;;;;;;;6.00;2.50;;;;;;;;;;5060938;28;20047;-81
2021/01/23 10:54:57;;;;;;;5.53;2.65;;;;;;;;;;5056913;28;20020;-84
2021/01/23 10:57:42;;;;;;;4.07;2.50;;;;;;;;;;5052092;28;20579;-82
2021/01/23 11:00:28;;;;;;;4.82;2.38;;;;;;;;;;5057905;28;20024;-82
2021/01/23 11:03:13;;;;;;;3.25;2.25;;;;;;;;;;5053827;28;20501;-83
2021/01/23 11:05:58;;;;;;;4.00;2.03;;;;;;;;;;5055784;28;20069;-82
2021/01/23 11:08:43;;;;;;;5.10;2.58;;;;;;;;;;5053207;28;20024;-82
2021/01/23 11:11:30;;;;;;;5.07;2.58;;;;;;;;;;5055835;28;20025;-83
2021/01/23 11:14:16;;;;;;;3.25;2.10;;;;;;;;;;5055144;28;20025;-83
2021/01/23 11:17:01;;;;;;;3.33;2.00;;;;;;;;;;5055173;28;20027;-81
2021/01/23 11:19:46;;;;;;;4.13;2.28;;;;;;;;;;5067446;28;20021;-85
2021/01/23 11:22:32;;;;;;;3.53;2.17;;;;;;;;;;5052202;28;20063;-79
2021/01/23 11:25:17;;;;;;;7.55;2.08;;;;;;;;;;5055483;28;20433;-78
2021/01/23 11:28:02;;;;;;;3.25;2.30;;;;;;;;;;5053821;28;20024;-80
2021/01/23 11:30:49;;;;;;;4.35;2.28;;;;;;;;;;5054841;28;20086;-80
2021/01/23 11:33:35;;;;;;;4.85;2.20;;;;;;;;;;5052721;28;20032;-79
2021/01/23 11:36:20;;;;;;;6.57;2.17;;;;;;;;;;5058587;28;20121;-79
2021/01/23 11:39:05;;;;;;;4.07;2.28;;;;;;;;;;5050426;28;20016;-78
2021/01/23 11:41:51;;;;;;;4.95;2.20;;;;;;;;;;5069586;28;20048;-79
2021/01/23 11:44:36;;;;;;;4.45;2.00;;;;;;;;;;5053019;28;20086;-81
2021/01/23 11:47:21;;;;;;;7.28;2.35;;;;;;;;;;5051378;28;20024;-82
2021/01/23 11:50:07;;;;;;;3.83;2.05;;;;;;;;;;5051630;28;20111;-80
2021/01/23 11:52:52;;;;;;;4.40;1.85;;;;;;;;;;5053336;28;20538;-81
2021/01/23 11:55:37;;;;;;;4.60;2.00;;;;;;;;;;5053808;28;20070;-81
2021/01/23 11:58:22;;;;;;;6.93;2.10;;;;;;;;;;5054085;28;20024;-80
2021/01/23 12:01:08;;;;;;;4.03;2.20;;;;;;;;;;5053651;28;20012;-81
2021/01/23 12:03:53;;;;;;;5.50;2.38;;;;;;;;;;5052104;28;20027;-82
2021/01/23 12:06:38;;;;;;;5.38;2.38;;;;;;;;;;5053353;28;20147;-79
2021/01/23 12:09:23;;;;;;;5.80;2.53;;;;;;;;;;5052091;28;20524;-81
2021/01/23 12:12:08;;;;;;;4.82;2.13;;;;;;;;;;5053483;28;20095;-81
2021/01/23 12:14:54;;;;;;;3.05;1.80;;;;;;;;;;5051299;28;20175;-79
2021/01/23 12:17:39;;;;;;;7.90;2.20;;;;;;;;;;5054701;28;20017;-80
2021/01/23 12:20:24;;;;;;;3.90;1.70;;;;;;;;;;5039303;28;20017;-81
2021/01/23 12:23:10;;;;;;;3.30;2.05;;;;;;;;;;5055560;28;20442;-79
2021/01/23 12:25:55;;;;;;;6.78;2.30;;;;;;;;;;5052698;28;20029;-79
2021/01/23 12:28:40;;;;;;;5.80;2.83;;;;;;;;;;5066821;28;20039;-77
2021/01/23 12:31:25;;;;;;;4.93;2.10;;;;;;;;;;5048724;28;20013;-78
2021/01/23 12:34:11;;;;;;;3.33;1.70;;;;;;;;;;5054584;28;20059;-78
2021/01/23 12:36:56;;;;;;;5.68;1.95;;;;;;;;;;5052271;28;20046;-78
2021/01/23 12:39:41;;;;;;;7.78;2.08;;;;;;;;;;5054949;28;20442;-79
2021/01/23 12:42:26;;;;;;;5.43;1.90;;;;;;;;;;5052047;28;20049;-79
2021/01/23 12:45:12;;;;;;;4.45;1.65;;;;;;;;;;5051537;28;20433;-78
2021/01/23 12:47:57;;;;;;;4.55;1.90;;;;;;;;;;5053329;28;20432;-78
2021/01/23 12:50:42;;;;;;;7.00;2.30;;;;;;;;;;5052685;28;20028;-77
2021/01/23 12:53:28;;;;;;;3.75;2.00;;;;;;;;;;5053014;28;20050;-77
2021/01/23 12:56:13;;;;;;;6.18;2.30;;;;;;;;;;5049806;28;20021;-77
2021/01/23 12:58:58;;;;;;;5.57;2.28;;;;;;;;;;5054711;28;20048;-77
2021/01/23 13:01:43;;;;;;;2.78;1.70;;;;;;;;;;5050610;28;20027;-78
2021/01/23 13:04:29;;;;;;;3.47;1.85;;;;;;;;;;5051067;28;20016;-78
2021/01/23 13:07:14;;;;;;;8.52;1.90;;;;;;;;;;5050650;28;20130;-76
2021/01/23 13:09:59;;;;;;;3.58;1.60;;;;;;;;;;5054400;28;20048;-77
2021/01/23 13:12:47;;;;;;;5.97;2.30;;;;;;;;;;5058230;28;20029;-78
2021/01/23 13:15:33;;;;;;;5.13;1.85;;;;;;;;;;5055633;28;20027;-77
2021/01/23 13:18:18;;;;;;;5.57;1.80;;;;;;;;;;5047841;28;20096;-80
2021/01/23 13:21:04;;;;;;;5.55;1.95;;;;;;;;;;5047908;28;20017;-80
2021/01/23 13:23:49;;;;;;;3.58;2.13;;;;;;;;;;5063179;28;20782;-80
2021/01/23 13:26:34;;;;;;;3.38;2.10;;;;;;;;;;5073276;28;20050;-80
2021/01/23 13:29:24;;;;;;;5.07;2.22;;;;;;;;;;5052079;28;20115;-81
2021/01/23 13:32:09;;;;;;;4.80;2.03;;;;;;;;;;5054593;28;20032;-80
2021/01/23 13:34:54;;;;;;;4.28;2.17;;;;;;;;;;5053457;28;20681;-80
2021/01/23 13:37:40;;;;;;;4.05;2.20;;;;;;;;;;5043092;28;20025;-80
2021/01/23 13:40:25;;;;;;;5.63;2.40;;;;;;;;;;5052930;28;20045;-80
2021/01/23 13:43:10;;;;;;;3.60;2.05;;;;;;;;;;5050842;28;20020;-80
2021/01/23 13:45:56;;;;;;;5.07;2.13;;;;;;;;;;5052750;28;20475;-80
2021/01/23 13:48:41;;;;;;;4.72;2.10;;;;;;;;;;5050898;28;20037;-80
2021/01/23 13:51:26;;;;;;;2.75;1.80;;;;;;;;;;5053002;28;20031;-80
2021/01/23 13:54:12;;;;;;;3.38;2.33;;;;;;;;;;5049777;28;20090;-80
2021/01/23 13:56:57;;;;;;;8.93;2.47;;;;;;;;;;5053034;28;20504;-80
2021/01/23 13:59:42;;;;;;;5.38;2.20;;;;;;;;;;5037597;28;20028;-79
2021/01/23 14:02:27;;;;;;;4.28;2.17;;;;;;;;;;5053234;28;20028;-80
2021/01/23 14:05:16;;;;;;;5.93;2.13;;;;;;;;;;5046726;28;20063;-79
2021/01/23 14:08:01;;;;;;;8.32;3.55;;;;;;;;;;5053753;28;20016;-80
2021/01/23 14:10:46;;;;;;;9.77;4.20;;;;;;;;;;5050358;28;20125;-81
2021/01/23 14:13:31;;;;;;;4.78;2.53;;;;;;;;;;5054353;28;20024;-81
2021/01/23 14:16:19;;;;;;;6.20;2.63;;;;;;;;;;5052907;28;20745;-78
2021/01/23 14:19:05;;;;;;;5.80;2.88;;;;;;;;;;5049900;28;20017;-79
2021/01/23 14:21:50;;;;;;;7.68;3.08;;;;;;;;;;5048485;28;20028;-78
2021/01/23 14:24:35;;;;;;;7.78;2.90;;;;;;;;;;5052405;28;20522;-82
2021/01/23 14:27:21;;;;;;;4.82;2.25;;;;;;;;;;5056718;28;20050;-81
2021/01/23 14:30:06;;;;;;;5.32;2.53;;;;;;;;;;5049010;28;20031;-82
2021/01/23 14:32:52;;;;;;;7.18;2.40;;;;;;;;;;5052182;28;20028;-82
2021/01/23 14:35:37;;;;;;;6.05;2.33;;;;;;;;;;5038849;28;20386;-79
2021/01/23 14:38:22;;;;;;;6.55;2.50;;;;;;;;;;5052144;28;20028;-81
2021/01/23 14:41:08;;;;;;;4.97;2.40;;;;;;;;;;5049103;28;20044;-80
2021/01/23 14:43:53;;;;;;;4.32;2.58;;;;;;;;;;5053284;28;20024;-80
2021/01/23 14:46:40;;;;;;;7.43;2.80;;;;;;;;;;5048660;28;20039;-82
2021/01/23 14:49:26;;;;;;;7.70;2.75;;;;;;;;;;5052764;28;20020;-81
2021/01/23 14:52:11;;;;;;;7.97;2.97;;;;;;;;;;5050055;28;20576;-81
2021/01/23 14:54:57;;;;;;;8.77;3.90;;;;;;;;;;5052221;28;20028;-81
2021/01/23 14:57:42;;;;;;;9.07;4.32;;;;;;;;;;5049583;28;20113;-83
2021/01/23 15:00:28;;;;;;;8.82;3.95;;;;;;;;;;5049067;28;20016;-80
2021/01/23 15:03:13;;;;;;;8.73;3.75;;;;;;;;;;5053088;28;20091;-80
2021/01/23 15:05:58;;;;;;;8.02;3.70;;;;;;;;;;5051180;28;20024;-81
2021/01/23 15:08:44;;;;;;;7.28;3.55;;;;;;;;;;5051718;28;20151;-80
2021/01/23 15:11:29;;;;;;;7.45;3.80;;;;;;;;;;5047601;28;20086;-81
2021/01/23 15:14:14;;;;;;;10.40;4.32;;;;;;;;;;5051221;28;20033;-81
2021/01/23 15:16:59;;;;;;;7.32;3.72;;;;;;;;;;5051845;28;20382;-82
2021/01/23 15:19:45;;;;;;;9.43;4.30;;;;;;;;;;5066705;28;20046;-80
2021/01/23 15:22:30;;;;;;;8.63;4.63;;;;;;;;;;5052666;28;20024;-78
2021/01/23 15:25:15;;;;;;;9.18;4.90;;;;;;;;;;5051074;28;20029;-82
2021/01/23 15:28:00;;;;;;;7.47;5.15;;;;;;;;;;5047979;28;20020;-83
2021/01/23 15:30:46;;;;;;;15.82;8.50;;;;;;;;;;5054953;28;20558;-81
2021/01/23 15:33:31;;;;;;;10.35;5.47;;;;;;;;;;5066711;28;20020;-83
2021/01/23 15:36:17;;;;;;;7.43;4.63;;;;;;;;;;5057801;28;20032;-85
2021/01/23 15:39:10;;;;;;;12.10;6.10;;;;;;;;;;5055322;28;20032;-88
2021/01/23 15:42:05;;;;;;;10.15;4.95;;;;;;;;;;5055189;28;20041;-87
2021/01/23 15:44:50;;;;;;;7.15;4.18;;;;;;;;;;5056703;28;20509;-87
2021/01/23 15:47:36;;;;;;;8.15;4.78;;;;;;;;;;5054435;28;20033;-87
2021/01/23 15:50:24;;;;;;;21.58;7.35;;;;;;;;;;5056899;28;20107;-86
2021/01/23 15:53:10;;;;;;;8.02;3.83;;;;;;;;;;5054989;28;20028;-87
2021/01/23 15:55:56;;;;;;;9.50;4.43;;;;;;;;;;5056065;28;20048;-85
2021/01/23 15:58:41;;;;;;;7.32;3.67;;;;;;;;;;5051960;28;20071;-89
2021/01/23 16:01:27;;;;;;;6.30;4.15;;;;;;;;;;5069538;28;20048;-84
2021/01/23 16:04:14;;;;;;;7.05;4.57;;;;;;;;;;5065307;28;20103;-84
2021/01/23 16:06:59;;;;;;;12.10;4.57;;;;;;;;;;5051549;28;20378;-82
2021/01/23 16:09:46;;;;;;;11.35;5.78;;;;;;;;;;5055484;28;20037;-90
2021/01/23 16:12:31;;;;;;;9.90;4.90;;;;;;;;;;5056510;28;20082;-85
2021/01/23 16:15:16;;;;;;;7.78;4.47;;;;;;;;;;5053745;28;20060;-86
2021/01/23 16:18:02;;;;;;;9.60;4.88;;;;;;;;;;5057529;28;20115;-84
2021/01/23 16:20:47;;;;;;;6.85;4.20;;;;;;;;;;5043933;28;20024;-88
2021/01/23 16:23:33;;;;;;;7.05;3.40;;;;;;;;;;5059367;28;20028;-88
2021/01/23 16:26:18;;;;;;;6.05;4.03;;;;;;;;;;5058395;28;20027;-88
2021/01/23 16:29:06;;;;;;;9.18;4.72;;;;;;;;;;5056688;28;20199;-88
2021/01/23 16:31:51;;;;;;;8.70;4.47;;;;;;;;;;5057029;28;20486;-86
2021/01/23 16:34:36;;;;;;;8.07;4.20;;;;;;;;;;5055607;28;20444;-85
2021/01/23 16:37:22;;;;;;;6.57;3.65;;;;;;;;;;5058114;28;20017;-86
2021/01/23 16:40:07;;;;;;;8.73;4.07;;;;;;;;;;5053932;28;20031;-85
2021/01/23 16:42:52;;;;;;;5.35;3.00;;;;;;;;;;5059917;28;20020;-84
2021/01/23 16:45:37;;;;;;;6.43;4.05;;;;;;;;;;5055222;28;20103;-85